sensor_id;sensor_type;location;lat;lon;timestamp;P1;durP1;ratioP1;P2;durP2;ratioP2
32032;SDS011;31720;52.638;9.216;2023-04-16T00:02:13;24.67;;;9.88;;
32032;SDS011;31720;52.638;9.216;2023-04-16T00:05:15;23.42;;;10.70;;
32032;SDS011;31720;52.638;9.216;2023-04-16T00:08:17;28.48;;;10.80;;
32032;SDS011;31720;52.638;9.216;2023-04-16T00:11:18;21.27;;;9.93;;
32032;SDS011;31720;52.638;9.216;2023-04-16T00:14:21;15.85;;;9.73;;
32032;SDS011;31720;52.638;9.216;2023-04-16T00:17:22;26.13;;;11.43;;
32032;SDS011;31720;52.638;9.216;2023-04-16T00:20:24;20.13;;;10.43;;
32032;SDS011;31720;52.638;9.216;2023-04-16T00:23:25;24.83;;;10.98;;
32032;SDS011;31720;52.638;9.216;2023-04-16T00:26:26;21.05;;;9.90;;
32032;SDS011;31720;52.638;9.216;2023-04-16T00:29:29;26.92;;;11.10;;
32032;SDS011;31720;52.638;9.216;2023-04-16T00:32:31;18.73;;;10.63;;
32032;SDS011;31720;52.638;9.216;2023-04-16T00:35:33;26.65;;;11.23;;
32032;SDS011;31720;52.638;9.216;2023-04-16T00:38:34;23.60;;;10.32;;
32032;SDS011;31720;52.638;9.216;2023-04-16T00:41:36;22.77;;;10.82;;
32032;SDS011;31720;52.638;9.216;2023-04-16T00:44:39;25.35;;;10.35;;
32032;SDS011;31720;52.638;9.216;2023-04-16T00:47:40;21.08;;;11.35;;
32032;SDS011;31720;52.638;9.216;2023-04-16T00:50:42;20.40;;;9.60;;
32032;SDS011;31720;52.638;9.216;2023-04-16T00:53:44;26.67;;;11.15;;
32032;SDS011;31720;52.638;9.216;2023-04-16T00:56:46;21.90;;;10.75;;
32032;SDS011;31720;52.638;9.216;2023-04-16T00:59:49;19.08;;;9.95;;
32032;SDS011;31720;52.638;9.216;2023-04-16T01:02:51;20.67;;;10.13;;
32032;SDS011;31720;52.638;9.216;2023-04-16T01:05:53;22.58;;;11.50;;
32032;SDS011;31720;52.638;9.216;2023-04-16T01:08:55;20.02;;;10.75;;
32032;SDS011;31720;52.638;9.216;2023-04-16T01:11:57;21.75;;;10.93;;
32032;SDS011;31720;52.638;9.216;2023-04-16T01:14:59;16.65;;;9.32;;
32032;SDS011;31720;52.638;9.216;2023-04-16T01:18:01;24.17;;;10.35;;
32032;SDS011;31720;52.638;9.216;2023-04-16T01:21:04;19.40;;;9.60;;
32032;SDS011;31720;52.638;9.216;2023-04-16T01:24:06;25.80;;;11.27;;
32032;SDS011;31720;52.638;9.216;2023-04-16T01:27:07;22.67;;;11.20;;
32032;SDS011;31720;52.638;9.216;2023-04-16T01:30:09;24.15;;;11.23;;
32032;SDS011;31720;52.638;9.216;2023-04-16T01:33:11;24.45;;;10.77;;
32032;SDS011;31720;52.638;9.216;2023-04-16T01:36:14;21.60;;;10.52;;
32032;SDS011;31720;52.638;9.216;2023-04-16T01:39:15;18.02;;;9.57;;
32032;SDS011;31720;52.638;9.216;2023-04-16T01:42:18;24.20;;;11.23;;
32032;SDS011;31720;52.638;9.216;2023-04-16T01:45:19;23.60;;;11.02;;
32032;SDS011;31720;52.638;9.216;2023-04-16T01:48:21;20.77;;;10.77;;
32032;SDS011;31720;52.638;9.216;2023-04-16T01:51:24;19.98;;;10.38;;
32032;SDS011;31720;52.638;9.216;2023-04-16T01:54:26;21.15;;;10.18;;
32032;SDS011;31720;52.638;9.216;2023-04-16T01:57:27;23.63;;;9.98;;
32032;SDS011;31720;52.638;9.216;2023-04-16T02:00:29;22.40;;;10.15;;
32032;SDS011;31720;52.638;9.216;2023-04-16T02:03:30;25.60;;;10.55;;
32032;SDS011;31720;52.638;9.216;2023-04-16T02:06:33;28.42;;;10.85;;
32032;SDS011;31720;52.638;9.216;2023-04-16T02:09:35;23.65;;;10.27;;
32032;SDS011;31720;52.638;9.216;2023-04-16T02:12:37;24.83;;;10.63;;
32032;SDS011;31720;52.638;9.216;2023-04-16T02:15:38;25.08;;;10.18;;
32032;SDS011;31720;52.638;9.216;2023-04-16T02:18:40;22.80;;;10.93;;
32032;SDS011;31720;52.638;9.216;2023-04-16T02:21:42;20.88;;;9.88;;
32032;SDS011;31720;52.638;9.216;2023-04-16T02:24:44;24.98;;;10.70;;
32032;SDS011;31720;52.638;9.216;2023-04-16T02:27:45;20.42;;;10.75;;
32032;SDS011;31720;52.638;9.216;2023-04-16T02:30:46;22.75;;;10.38;;
32032;SDS011;31720;52.638;9.216;2023-04-16T02:33:48;22.25;;;11.00;;
32032;SDS011;31720;52.638;9.216;2023-04-16T02:36:51;20.73;;;10.02;;
32032;SDS011;31720;52.638;9.216;2023-04-16T02:39:53;20.35;;;9.93;;
32032;SDS011;31720;52.638;9.216;2023-04-16T02:42:54;19.75;;;9.80;;
32032;SDS011;31720;52.638;9.216;2023-04-16T02:45:56;24.52;;;10.70;;
32032;SDS011;31720;52.638;9.216;2023-04-16T02:48:58;24.30;;;9.88;;
32032;SDS011;31720;52.638;9.216;2023-04-16T02:52:01;21.58;;;10.23;;
32032;SDS011;31720;52.638;9.216;2023-04-16T02:55:02;19.35;;;11.43;;
32032;SDS011;31720;52.638;9.216;2023-04-16T02:58:04;23.48;;;10.43;;
32032;SDS011;31720;52.638;9.216;2023-04-16T03:01:05;24.77;;;11.32;;
32032;SDS011;31720;52.638;9.216;2023-04-16T03:04:07;21.45;;;10.52;;
32032;SDS011;31720;52.638;9.216;2023-04-16T03:07:09;21.77;;;10.98;;
32032;SDS011;31720;52.638;9.216;2023-04-16T03:10:11;23.63;;;12.43;;
32032;SDS011;31720;52.638;9.216;2023-04-16T03:13:13;24.15;;;12.50;;
32032;SDS011;31720;52.638;9.216;2023-04-16T03:16:15;27.23;;;12.43;;
32032;SDS011;31720;52.638;9.216;2023-04-16T03:19:16;26.20;;;12.45;;
32032;SDS011;31720;52.638;9.216;2023-04-16T03:22:19;31.88;;;12.45;;
32032;SDS011;31720;52.638;9.216;2023-04-16T03:25:20;28.23;;;12.68;;
32032;SDS011;31720;52.638;9.216;2023-04-16T03:28:22;30.90;;;12.90;;
32032;SDS011;31720;52.638;9.216;2023-04-16T03:31:23;27.92;;;13.70;;
32032;SDS011;31720;52.638;9.216;2023-04-16T03:34:25;30.42;;;12.05;;
32032;SDS011;31720;52.638;9.216;2023-04-16T03:37:27;36.08;;;13.32;;
32032;SDS011;31720;52.638;9.216;2023-04-16T03:40:29;33.00;;;12.55;;
32032;SDS011;31720;52.638;9.216;2023-04-16T03:43:31;31.85;;;13.00;;
32032;SDS011;31720;52.638;9.216;2023-04-16T03:46:32;26.13;;;12.02;;
32032;SDS011;31720;52.638;9.216;2023-04-16T03:49:33;30.05;;;12.93;;
32032;SDS011;31720;52.638;9.216;2023-04-16T03:52:36;23.65;;;11.68;;
32032;SDS011;31720;52.638;9.216;2023-04-16T03:55:37;28.73;;;12.75;;
32032;SDS011;31720;52.638;9.216;2023-04-16T03:58:39;32.30;;;13.85;;
32032;SDS011;31720;52.638;9.216;2023-04-16T04:01:40;29.23;;;12.57;;
32032;SDS011;31720;52.638;9.216;2023-04-16T04:04:42;28.63;;;13.40;;
32032;SDS011;31720;52.638;9.216;2023-04-16T04:07:44;27.67;;;12.75;;
32032;SDS011;31720;52.638;9.216;2023-04-16T04:10:46;28.70;;;13.32;;
32032;SDS011;31720;52.638;9.216;2023-04-16T04:13:47;26.20;;;12.10;;
32032;SDS011;31720;52.638;9.216;2023-04-16T04:16:49;24.98;;;12.48;;
32032;SDS011;31720;52.638;9.216;2023-04-16T04:19:50;22.55;;;12.13;;
32032;SDS011;31720;52.638;9.216;2023-04-16T04:22:54;35.15;;;13.95;;
32032;SDS011;31720;52.638;9.216;2023-04-16T04:25:55;28.52;;;12.25;;
32032;SDS011;31720;52.638;9.216;2023-04-16T04:28:56;29.38;;;12.55;;
32032;SDS011;31720;52.638;9.216;2023-04-16T04:31:58;34.08;;;12.60;;
32032;SDS011;31720;52.638;9.216;2023-04-16T04:35:00;27.98;;;10.98;;
32032;SDS011;31720;52.638;9.216;2023-04-16T04:38:04;24.73;;;12.45;;
32032;SDS011;31720;52.638;9.216;2023-04-16T04:41:05;26.27;;;12.35;;
32032;SDS011;31720;52.638;9.216;2023-04-16T04:44:06;23.98;;;11.45;;
32032;SDS011;31720;52.638;9.216;2023-04-16T04:47:08;18.95;;;11.23;;
32032;SDS011;31720;52.638;9.216;2023-04-16T04:50:09;25.15;;;10.77;;
32032;SDS011;31720;52.638;9.216;2023-04-16T04:53:12;20.88;;;11.35;;
32032;SDS011;31720;52.638;9.216;2023-04-16T04:56:13;21.60;;;10.60;;
32032;SDS011;31720;52.638;9.216;2023-04-16T04:59:15;21.00;;;10.18;;
32032;SDS011;31720;52.638;9.216;2023-04-16T05:02:16;24.17;;;11.07;;
32032;SDS011;31720;52.638;9.216;2023-04-16T05:05:18;60.90;;;20.85;;
32032;SDS011;31720;52.638;9.216;2023-04-16T05:08:21;20.40;;;11.68;;
32032;SDS011;31720;52.638;9.216;2023-04-16T05:11:22;27.55;;;11.93;;
32032;SDS011;31720;52.638;9.216;2023-04-16T05:14:23;26.70;;;11.32;;
32032;SDS011;31720;52.638;9.216;2023-04-16T05:17:25;25.75;;;12.32;;
32032;SDS011;31720;52.638;9.216;2023-04-16T05:20:26;24.25;;;12.15;;
32032;SDS011;31720;52.638;9.216;2023-04-16T05:23:29;25.20;;;11.55;;
32032;SDS011;31720;52.638;9.216;2023-04-16T05:26:30;31.02;;;13.90;;
32032;SDS011;31720;52.638;9.216;2023-04-16T05:29:32;27.05;;;12.35;;
32032;SDS011;31720;52.638;9.216;2023-04-16T05:32:33;25.98;;;12.10;;
32032;SDS011;31720;52.638;9.216;2023-04-16T05:35:35;20.70;;;11.48;;
32032;SDS011;31720;52.638;9.216;2023-04-16T05:38:37;25.38;;;11.40;;
32032;SDS011;31720;52.638;9.216;2023-04-16T05:41:39;24.70;;;11.63;;
32032;SDS011;31720;52.638;9.216;2023-04-16T05:44:40;23.85;;;11.75;;
32032;SDS011;31720;52.638;9.216;2023-04-16T05:47:42;25.58;;;12.02;;
32032;SDS011;31720;52.638;9.216;2023-04-16T05:50:43;32.38;;;12.20;;
32032;SDS011;31720;52.638;9.216;2023-04-16T05:53:46;36.58;;;13.73;;
32032;SDS011;31720;52.638;9.216;2023-04-16T05:56:47;31.52;;;11.35;;
32032;SDS011;31720;52.638;9.216;2023-04-16T05:59:49;24.48;;;11.38;;
32032;SDS011;31720;52.638;9.216;2023-04-16T06:02:50;28.77;;;12.57;;
32032;SDS011;31720;52.638;9.216;2023-04-16T06:05:52;29.58;;;12.05;;
32032;SDS011;31720;52.638;9.216;2023-04-16T06:08:54;26.20;;;11.57;;
32032;SDS011;31720;52.638;9.216;2023-04-16T06:11:56;26.10;;;11.93;;
32032;SDS011;31720;52.638;9.216;2023-04-16T06:14:58;25.30;;;12.00;;
32032;SDS011;31720;52.638;9.216;2023-04-16T06:18:00;27.27;;;11.93;;
32032;SDS011;31720;52.638;9.216;2023-04-16T06:21:02;23.55;;;11.73;;
32032;SDS011;31720;52.638;9.216;2023-04-16T06:24:05;26.08;;;12.15;;
32032;SDS011;31720;52.638;9.216;2023-04-16T06:27:06;22.27;;;11.00;;
32032;SDS011;31720;52.638;9.216;2023-04-16T06:30:11;30.92;;;12.23;;
32032;SDS011;31720;52.638;9.216;2023-04-16T06:33:13;25.60;;;11.60;;
32032;SDS011;31720;52.638;9.216;2023-04-16T06:36:15;26.40;;;11.80;;
32032;SDS011;31720;52.638;9.216;2023-04-16T06:39:18;28.10;;;11.68;;
32032;SDS011;31720;52.638;9.216;2023-04-16T06:42:20;22.83;;;11.38;;
32032;SDS011;31720;52.638;9.216;2023-04-16T06:45:22;26.50;;;11.25;;
32032;SDS011;31720;52.638;9.216;2023-04-16T06:48:23;26.25;;;10.88;;
32032;SDS011;31720;52.638;9.216;2023-04-16T06:51:25;25.20;;;11.48;;
32032;SDS011;31720;52.638;9.216;2023-04-16T06:54:28;24.38;;;11.63;;
32032;SDS011;31720;52.638;9.216;2023-04-16T06:57:30;22.08;;;10.85;;
32032;SDS011;31720;52.638;9.216;2023-04-16T07:00:31;25.23;;;11.25;;
32032;SDS011;31720;52.638;9.216;2023-04-16T07:03:32;22.40;;;11.13;;
32032;SDS011;31720;52.638;9.216;2023-04-16T07:06:34;22.33;;;11.50;;
32032;SDS011;31720;52.638;9.216;2023-04-16T07:09:37;22.77;;;11.30;;
32032;SDS011;31720;52.638;9.216;2023-04-16T07:12:38;21.38;;;10.85;;
32032;SDS011;31720;52.638;9.216;2023-04-16T07:15:40;23.98;;;10.50;;
32032;SDS011;31720;52.638;9.216;2023-04-16T07:18:41;24.10;;;10.25;;
32032;SDS011;31720;52.638;9.216;2023-04-16T07:21:42;21.58;;;10.93;;
32032;SDS011;31720;52.638;9.216;2023-04-16T07:24:46;28.15;;;10.43;;
32032;SDS011;31720;52.638;9.216;2023-04-16T07:27:47;27.23;;;11.13;;
32032;SDS011;31720;52.638;9.216;2023-04-16T07:30:49;23.48;;;11.18;;
32032;SDS011;31720;52.638;9.216;2023-04-16T07:33:50;23.88;;;10.75;;
32032;SDS011;31720;52.638;9.216;2023-04-16T07:36:52;20.23;;;10.00;;
32032;SDS011;31720;52.638;9.216;2023-04-16T07:39:54;21.20;;;9.98;;
32032;SDS011;31720;52.638;9.216;2023-04-16T07:42:56;18.25;;;10.23;;
32032;SDS011;31720;52.638;9.216;2023-04-16T07:45:58;20.90;;;9.38;;
32032;SDS011;31720;52.638;9.216;2023-04-16T07:48:59;24.17;;;10.75;;
32032;SDS011;31720;52.638;9.216;2023-04-16T07:52:00;21.83;;;10.35;;
32032;SDS011;31720;52.638;9.216;2023-04-16T07:55:04;27.52;;;10.98;;
32032;SDS011;31720;52.638;9.216;2023-04-16T07:58:06;22.98;;;10.40;;
32032;SDS011;31720;52.638;9.216;2023-04-16T08:01:08;27.88;;;11.57;;
32032;SDS011;31720;52.638;9.216;2023-04-16T08:04:10;26.17;;;10.32;;
32032;SDS011;31720;52.638;9.216;2023-04-16T08:07:11;39.20;;;13.52;;
32032;SDS011;31720;52.638;9.216;2023-04-16T08:10:14;23.40;;;10.68;;
32032;SDS011;31720;52.638;9.216;2023-04-16T08:13:15;20.00;;;10.25;;
32032;SDS011;31720;52.638;9.216;2023-04-16T08:16:17;23.88;;;10.15;;
32032;SDS011;31720;52.638;9.216;2023-04-16T08:19:18;22.83;;;9.23;;
32032;SDS011;31720;52.638;9.216;2023-04-16T08:22:20;20.40;;;9.18;;
32032;SDS011;31720;52.638;9.216;2023-04-16T08:25:22;22.15;;;10.05;;
32032;SDS011;31720;52.638;9.216;2023-04-16T08:28:24;23.73;;;9.77;;
32032;SDS011;31720;52.638;9.216;2023-04-16T08:31:25;19.63;;;8.02;;
32032;SDS011;31720;52.638;9.216;2023-04-16T08:34:27;24.08;;;10.95;;
32032;SDS011;31720;52.638;9.216;2023-04-16T08:37:28;21.75;;;10.45;;
32032;SDS011;31720;52.638;9.216;2023-04-16T08:40:31;18.00;;;8.93;;
32032;SDS011;31720;52.638;9.216;2023-04-16T08:43:38;21.20;;;10.15;;
32032;SDS011;31720;52.638;9.216;2023-04-16T08:46:44;20.05;;;9.82;;
32032;SDS011;31720;52.638;9.216;2023-04-16T08:49:46;23.27;;;10.32;;
32032;SDS011;31720;52.638;9.216;2023-04-16T08:52:49;20.52;;;10.48;;
32032;SDS011;31720;52.638;9.216;2023-04-16T08:55:52;22.48;;;10.27;;
32032;SDS011;31720;52.638;9.216;2023-04-16T08:58:59;24.03;;;9.20;;
32032;SDS011;31720;52.638;9.216;2023-04-16T09:02:04;20.83;;;9.90;;
32032;SDS011;31720;52.638;9.216;2023-04-16T09:05:06;18.92;;;9.68;;
32032;SDS011;31720;52.638;9.216;2023-04-16T09:08:09;19.48;;;9.43;;
32032;SDS011;31720;52.638;9.216;2023-04-16T09:11:12;19.80;;;8.95;;
32032;SDS011;31720;52.638;9.216;2023-04-16T09:14:17;19.25;;;10.07;;
32032;SDS011;31720;52.638;9.216;2023-04-16T09:17:19;19.10;;;10.15;;
32032;SDS011;31720;52.638;9.216;2023-04-16T09:20:20;20.25;;;9.60;;
32032;SDS011;31720;52.638;9.216;2023-04-16T09:23:22;26.30;;;10.40;;
32032;SDS011;31720;52.638;9.216;2023-04-16T09:26:25;18.77;;;9.75;;
32032;SDS011;31720;52.638;9.216;2023-04-16T09:29:33;18.42;;;8.57;;
32032;SDS011;31720;52.638;9.216;2023-04-16T09:32:36;21.02;;;9.38;;
32032;SDS011;31720;52.638;9.216;2023-04-16T09:35:43;24.38;;;10.02;;
32032;SDS011;31720;52.638;9.216;2023-04-16T09:38:46;20.63;;;10.00;;
32032;SDS011;31720;52.638;9.216;2023-04-16T09:41:49;23.33;;;8.52;;
32032;SDS011;31720;52.638;9.216;2023-04-16T09:44:53;29.05;;;10.65;;
32032;SDS011;31720;52.638;9.216;2023-04-16T09:48:01;22.45;;;9.50;;
32032;SDS011;31720;52.638;9.216;2023-04-16T09:51:04;17.97;;;8.63;;
32032;SDS011;31720;52.638;9.216;2023-04-16T09:54:06;22.13;;;10.63;;
32032;SDS011;31720;52.638;9.216;2023-04-16T09:57:09;26.48;;;10.88;;
32032;SDS011;31720;52.638;9.216;2023-04-16T10:00:11;19.33;;;9.90;;
32032;SDS011;31720;52.638;9.216;2023-04-16T10:03:18;20.25;;;9.48;;
32032;SDS011;31720;52.638;9.216;2023-04-16T10:06:29;22.45;;;9.52;;
32032;SDS011;31720;52.638;9.216;2023-04-16T10:09:31;17.92;;;8.70;;
32032;SDS011;31720;52.638;9.216;2023-04-16T10:12:34;22.42;;;9.25;;
32032;SDS011;31720;52.638;9.216;2023-04-16T10:15:35;21.27;;;9.32;;
32032;SDS011;31720;52.638;9.216;2023-04-16T10:18:38;20.27;;;9.48;;
32032;SDS011;31720;52.638;9.216;2023-04-16T10:21:40;19.08;;;9.98;;
32032;SDS011;31720;52.638;9.216;2023-04-16T10:24:42;19.40;;;8.75;;
32032;SDS011;31720;52.638;9.216;2023-04-16T10:27:46;16.48;;;8.85;;
32032;SDS011;31720;52.638;9.216;2023-04-16T10:30:48;20.92;;;8.50;;
32032;SDS011;31720;52.638;9.216;2023-04-16T10:33:52;17.58;;;8.35;;
32032;SDS011;31720;52.638;9.216;2023-04-16T10:36:54;22.65;;;9.88;;
32032;SDS011;31720;52.638;9.216;2023-04-16T10:39:56;18.90;;;9.23;;
32032;SDS011;31720;52.638;9.216;2023-04-16T10:43:00;22.58;;;9.93;;
32032;SDS011;31720;52.638;9.216;2023-04-16T10:46:16;21.25;;;9.27;;
32032;SDS011;31720;52.638;9.216;2023-04-16T10:49:19;23.17;;;10.75;;
32032;SDS011;31720;52.638;9.216;2023-04-16T10:52:23;20.08;;;10.00;;
32032;SDS011;31720;52.638;9.216;2023-04-16T10:55:25;27.95;;;12.55;;
32032;SDS011;31720;52.638;9.216;2023-04-16T10:58:28;18.08;;;7.88;;
32032;SDS011;31720;52.638;9.216;2023-04-16T11:01:31;21.00;;;9.93;;
32032;SDS011;31720;52.638;9.216;2023-04-16T11:04:34;19.42;;;9.27;;
32032;SDS011;31720;52.638;9.216;2023-04-16T11:07:36;18.42;;;9.20;;
32032;SDS011;31720;52.638;9.216;2023-04-16T11:10:47;24.42;;;9.98;;
32032;SDS011;31720;52.638;9.216;2023-04-16T11:13:52;20.48;;;9.32;;
32032;SDS011;31720;52.638;9.216;2023-04-16T11:16:55;21.85;;;8.80;;
32032;SDS011;31720;52.638;9.216;2023-04-16T11:19:57;23.35;;;9.05;;
32032;SDS011;31720;52.638;9.216;2023-04-16T11:22:58;26.77;;;9.27;;
32032;SDS011;31720;52.638;9.216;2023-04-16T11:26:00;18.65;;;9.45;;
32032;SDS011;31720;52.638;9.216;2023-04-16T11:29:03;25.48;;;10.82;;
32032;SDS011;31720;52.638;9.216;2023-04-16T11:32:19;20.83;;;9.60;;
32032;SDS011;31720;52.638;9.216;2023-04-16T11:35:21;22.30;;;10.88;;
32032;SDS011;31720;52.638;9.216;2023-04-16T11:38:31;22.33;;;10.55;;
32032;SDS011;31720;52.638;9.216;2023-04-16T11:41:33;22.70;;;10.30;;
32032;SDS011;31720;52.638;9.216;2023-04-16T11:44:36;20.17;;;9.80;;
32032;SDS011;31720;52.638;9.216;2023-04-16T11:47:44;20.63;;;9.57;;
32032;SDS011;31720;52.638;9.216;2023-04-16T11:50:46;18.33;;;8.90;;
32032;SDS011;31720;52.638;9.216;2023-04-16T11:56:57;17.52;;;8.07;;
32032;SDS011;31720;52.638;9.216;2023-04-16T12:00:00;16.05;;;8.50;;
32032;SDS011;31720;52.638;9.216;2023-04-16T12:03:05;19.88;;;8.52;;
32032;SDS011;31720;52.638;9.216;2023-04-16T12:06:07;18.48;;;8.55;;
32032;SDS011;31720;52.638;9.216;2023-04-16T12:09:21;15.93;;;8.07;;
32032;SDS011;31720;52.638;9.216;2023-04-16T12:12:26;19.15;;;8.85;;
32032;SDS011;31720;52.638;9.216;2023-04-16T12:15:43;14.43;;;7.43;;
32032;SDS011;31720;52.638;9.216;2023-04-16T12:18:57;18.23;;;7.25;;
32032;SDS011;31720;52.638;9.216;2023-04-16T12:22:00;15.98;;;8.15;;
32032;SDS011;31720;52.638;9.216;2023-04-16T12:25:02;17.90;;;7.38;;
32032;SDS011;31720;52.638;9.216;2023-04-16T12:28:04;15.82;;;8.10;;
32032;SDS011;31720;52.638;9.216;2023-04-16T12:31:06;21.08;;;8.48;;
32032;SDS011;31720;52.638;9.216;2023-04-16T12:34:09;14.05;;;7.57;;
32032;SDS011;31720;52.638;9.216;2023-04-16T12:37:11;16.23;;;8.02;;
32032;SDS011;31720;52.638;9.216;2023-04-16T12:40:13;17.13;;;8.55;;
32032;SDS011;31720;52.638;9.216;2023-04-16T12:43:15;19.92;;;9.85;;
32032;SDS011;31720;52.638;9.216;2023-04-16T12:46:18;21.70;;;8.90;;
32032;SDS011;31720;52.638;9.216;2023-04-16T12:49:19;17.17;;;8.85;;
32032;SDS011;31720;52.638;9.216;2023-04-16T12:52:21;21.20;;;9.82;;
32032;SDS011;31720;52.638;9.216;2023-04-16T12:55:22;16.70;;;8.30;;
32032;SDS011;31720;52.638;9.216;2023-04-16T12:58:24;20.45;;;8.60;;
32032;SDS011;31720;52.638;9.216;2023-04-16T13:01:27;37.83;;;14.07;;
32032;SDS011;31720;52.638;9.216;2023-04-16T13:04:28;19.73;;;8.75;;
32032;SDS011;31720;52.638;9.216;2023-04-16T13:07:30;23.30;;;9.13;;
32032;SDS011;31720;52.638;9.216;2023-04-16T13:10:33;17.90;;;9.52;;
32032;SDS011;31720;52.638;9.216;2023-04-16T13:13:35;20.52;;;8.88;;
32032;SDS011;31720;52.638;9.216;2023-04-16T13:16:38;17.65;;;8.18;;
32032;SDS011;31720;52.638;9.216;2023-04-16T13:19:39;22.13;;;9.80;;
32032;SDS011;31720;52.638;9.216;2023-04-16T13:22:41;19.85;;;8.55;;
32032;SDS011;31720;52.638;9.216;2023-04-16T13:25:42;22.20;;;9.32;;
32032;SDS011;31720;52.638;9.216;2023-04-16T13:28:43;17.27;;;8.80;;
32032;SDS011;31720;52.638;9.216;2023-04-16T13:31:46;17.90;;;8.35;;
32032;SDS011;31720;52.638;9.216;2023-04-16T13:34:48;24.42;;;9.38;;
32032;SDS011;31720;52.638;9.216;2023-04-16T13:37:49;18.48;;;8.90;;
32032;SDS011;31720;52.638;9.216;2023-04-16T13:40:51;20.10;;;9.32;;
32032;SDS011;31720;52.638;9.216;2023-04-16T13:43:52;14.27;;;8.25;;
32032;SDS011;31720;52.638;9.216;2023-04-16T13:46:55;17.45;;;8.20;;
32032;SDS011;31720;52.638;9.216;2023-04-16T13:49:57;19.23;;;9.32;;
32032;SDS011;31720;52.638;9.216;2023-04-16T13:52:58;21.55;;;8.80;;
32032;SDS011;31720;52.638;9.216;2023-04-16T13:56:00;17.67;;;8.32;;
32032;SDS011;31720;52.638;9.216;2023-04-16T13:59:02;15.10;;;7.95;;
32032;SDS011;31720;52.638;9.216;2023-04-16T14:02:05;20.67;;;9.15;;
32032;SDS011;31720;52.638;9.216;2023-04-16T14:05:07;20.48;;;9.00;;
32032;SDS011;31720;52.638;9.216;2023-04-16T14:08:09;19.17;;;8.60;;
32032;SDS011;31720;52.638;9.216;2023-04-16T14:11:13;18.55;;;8.38;;
32032;SDS011;31720;52.638;9.216;2023-04-16T14:14:14;17.48;;;8.23;;
32032;SDS011;31720;52.638;9.216;2023-04-16T14:17:17;22.83;;;9.73;;
32032;SDS011;31720;52.638;9.216;2023-04-16T14:20:18;16.58;;;8.05;;
32032;SDS011;31720;52.638;9.216;2023-04-16T14:23:20;20.60;;;9.82;;
32032;SDS011;31720;52.638;9.216;2023-04-16T14:26:22;18.42;;;8.75;;
32032;SDS011;31720;52.638;9.216;2023-04-16T14:29:23;14.80;;;8.07;;
32032;SDS011;31720;52.638;9.216;2023-04-16T14:32:26;16.50;;;8.30;;
32032;SDS011;31720;52.638;9.216;2023-04-16T14:35:27;18.70;;;7.93;;
32032;SDS011;31720;52.638;9.216;2023-04-16T14:38:29;19.08;;;8.38;;
32032;SDS011;31720;52.638;9.216;2023-04-16T14:41:30;18.75;;;9.00;;
32032;SDS011;31720;52.638;9.216;2023-04-16T14:44:32;19.60;;;7.88;;
32032;SDS011;31720;52.638;9.216;2023-04-16T14:47:35;18.73;;;7.78;;
32032;SDS011;31720;52.638;9.216;2023-04-16T14:50:44;17.58;;;7.88;;
32032;SDS011;31720;52.638;9.216;2023-04-16T14:53:45;20.38;;;8.43;;
32032;SDS011;31720;52.638;9.216;2023-04-16T14:56:47;16.75;;;8.27;;
32032;SDS011;31720;52.638;9.216;2023-04-16T14:59:49;12.93;;;7.43;;
32032;SDS011;31720;52.638;9.216;2023-04-16T15:02:52;17.75;;;7.97;;
32032;SDS011;31720;52.638;9.216;2023-04-16T15:05:53;16.67;;;8.15;;
32032;SDS011;31720;52.638;9.216;2023-04-16T15:08:55;17.80;;;8.60;;
32032;SDS011;31720;52.638;9.216;2023-04-16T15:11:56;15.43;;;7.97;;
32032;SDS011;31720;52.638;9.216;2023-04-16T15:14:58;18.77;;;8.40;;
32032;SDS011;31720;52.638;9.216;2023-04-16T15:18:01;15.20;;;7.65;;
32032;SDS011;31720;52.638;9.216;2023-04-16T15:21:03;12.32;;;7.05;;
32032;SDS011;31720;52.638;9.216;2023-04-16T15:24:05;12.48;;;6.80;;
32032;SDS011;31720;52.638;9.216;2023-04-16T15:27:06;18.63;;;8.23;;
32032;SDS011;31720;52.638;9.216;2023-04-16T15:30:08;17.33;;;8.60;;
32032;SDS011;31720;52.638;9.216;2023-04-16T15:33:12;16.63;;;8.45;;
32032;SDS011;31720;52.638;9.216;2023-04-16T15:36:14;16.02;;;7.75;;
32032;SDS011;31720;52.638;9.216;2023-04-16T15:39:16;17.30;;;7.95;;
32032;SDS011;31720;52.638;9.216;2023-04-16T15:42:17;18.85;;;8.10;;
32032;SDS011;31720;52.638;9.216;2023-04-16T15:45:18;25.48;;;8.65;;
32032;SDS011;31720;52.638;9.216;2023-04-16T15:48:22;17.58;;;7.22;;
32032;SDS011;31720;52.638;9.216;2023-04-16T15:51:23;20.30;;;8.13;;
32032;SDS011;31720;52.638;9.216;2023-04-16T15:54:25;14.88;;;7.35;;
32032;SDS011;31720;52.638;9.216;2023-04-16T15:57:27;22.88;;;8.60;;
32032;SDS011;31720;52.638;9.216;2023-04-16T16:00:28;22.15;;;9.63;;
32032;SDS011;31720;52.638;9.216;2023-04-16T16:03:31;17.13;;;7.90;;
32032;SDS011;31720;52.638;9.216;2023-04-16T16:06:34;18.73;;;7.93;;
32032;SDS011;31720;52.638;9.216;2023-04-16T16:09:36;14.32;;;7.85;;
32032;SDS011;31720;52.638;9.216;2023-04-16T16:12:38;17.20;;;8.60;;
32032;SDS011;31720;52.638;9.216;2023-04-16T16:15:40;19.08;;;9.40;;
32032;SDS011;31720;52.638;9.216;2023-04-16T16:18:43;16.33;;;8.73;;
32032;SDS011;31720;52.638;9.216;2023-04-16T16:21:44;18.02;;;8.13;;
32032;SDS011;31720;52.638;9.216;2023-04-16T16:24:46;12.00;;;6.68;;
32032;SDS011;31720;52.638;9.216;2023-04-16T16:27:49;12.80;;;6.68;;
32032;SDS011;31720;52.638;9.216;2023-04-16T16:30:51;14.20;;;7.03;;
32032;SDS011;31720;52.638;9.216;2023-04-16T16:33:55;14.73;;;6.95;;
32032;SDS011;31720;52.638;9.216;2023-04-16T16:36:57;13.82;;;6.50;;
32032;SDS011;31720;52.638;9.216;2023-04-16T16:39:58;14.48;;;6.20;;
32032;SDS011;31720;52.638;9.216;2023-04-16T16:43:00;12.77;;;5.82;;
32032;SDS011;31720;52.638;9.216;2023-04-16T16:46:01;12.27;;;6.57;;
32032;SDS011;31720;52.638;9.216;2023-04-16T16:49:05;11.02;;;5.80;;
32032;SDS011;31720;52.638;9.216;2023-04-16T16:52:08;23.00;;;11.13;;
32032;SDS011;31720;52.638;9.216;2023-04-16T16:55:10;12.25;;;6.70;;
32032;SDS011;31720;52.638;9.216;2023-04-16T16:58:11;12.85;;;6.55;;
32032;SDS011;31720;52.638;9.216;2023-04-16T17:01:12;11.90;;;6.28;;
32032;SDS011;31720;52.638;9.216;2023-04-16T17:04:15;11.02;;;6.03;;
32032;SDS011;31720;52.638;9.216;2023-04-16T17:07:17;10.20;;;5.60;;
32032;SDS011;31720;52.638;9.216;2023-04-16T17:10:20;11.20;;;6.10;;
32032;SDS011;31720;52.638;9.216;2023-04-16T17:13:22;11.48;;;6.25;;
32032;SDS011;31720;52.638;9.216;2023-04-16T17:16:24;13.73;;;6.22;;
32032;SDS011;31720;52.638;9.216;2023-04-16T17:19:26;12.05;;;6.00;;
32032;SDS011;31720;52.638;9.216;2023-04-16T17:22:28;12.18;;;6.05;;
32032;SDS011;31720;52.638;9.216;2023-04-16T17:25:30;12.48;;;6.65;;
32032;SDS011;31720;52.638;9.216;2023-04-16T17:28:31;13.02;;;7.10;;
32032;SDS011;31720;52.638;9.216;2023-04-16T17:31:32;13.20;;;7.22;;
32032;SDS011;31720;52.638;9.216;2023-04-16T17:34:35;11.45;;;6.10;;
32032;SDS011;31720;52.638;9.216;2023-04-16T17:37:37;15.32;;;7.57;;
32032;SDS011;31720;52.638;9.216;2023-04-16T17:40:38;11.38;;;6.38;;
32032;SDS011;31720;52.638;9.216;2023-04-16T17:43:39;13.57;;;6.97;;
32032;SDS011;31720;52.638;9.216;2023-04-16T17:46:41;11.65;;;6.38;;
32032;SDS011;31720;52.638;9.216;2023-04-16T17:49:43;17.98;;;7.15;;
32032;SDS011;31720;52.638;9.216;2023-04-16T17:52:45;18.92;;;9.35;;
32032;SDS011;31720;52.638;9.216;2023-04-16T17:55:50;11.13;;;6.20;;
32032;SDS011;31720;52.638;9.216;2023-04-16T17:58:51;12.07;;;5.75;;